createdAt,value
2023-03-18T00:00:57.489Z,0.00
2023-03-18T00:01:57.483Z,0.00
2023-03-18T00:02:57.570Z,0.00
2023-03-18T00:03:57.540Z,0.00
2023-03-18T00:04:57.449Z,0.00
2023-03-18T00:05:57.439Z,0.00
2023-03-18T00:06:57.425Z,0.00
2023-03-18T00:07:57.410Z,0.00
2023-03-18T00:08:57.400Z,0.00
2023-03-18T00:09:57.389Z,0.00
2023-03-18T00:10:57.384Z,0.00
2023-03-18T00:11:57.367Z,0.00
2023-03-18T00:12:57.361Z,0.00
2023-03-18T00:13:57.352Z,0.00
2023-03-18T00:14:57.336Z,0.00
2023-03-18T00:15:57.398Z,0.00
2023-03-18T00:16:57.315Z,0.00
2023-03-18T00:17:57.304Z,0.00
2023-03-18T00:18:57.294Z,0.00
2023-03-18T00:19:57.326Z,0.00
2023-03-18T00:20:57.273Z,0.00
2023-03-18T00:21:57.267Z,0.00
2023-03-18T00:22:57.250Z,0.00
2023-03-18T00:23:57.245Z,0.00
2023-03-18T00:24:57.228Z,0.00
2023-03-18T00:25:57.260Z,0.00
2023-03-18T00:26:57.222Z,0.00
2023-03-18T00:27:57.197Z,0.00
2023-03-18T00:28:57.186Z,0.00
2023-03-18T00:29:57.171Z,0.00
2023-03-18T00:30:57.194Z,0.00
2023-03-18T00:31:57.153Z,0.00
2023-03-18T00:32:57.198Z,0.00
2023-03-18T00:33:57.125Z,0.00
2023-03-18T00:34:57.150Z,0.00
2023-03-18T00:35:57.193Z,0.00
2023-03-18T00:36:57.299Z,0.00
2023-03-18T00:37:57.083Z,0.00
2023-03-18T00:38:57.076Z,0.00
2023-03-18T00:39:57.059Z,0.00
2023-03-18T00:40:57.048Z,0.00
2023-03-18T00:41:57.037Z,0.00
2023-03-18T00:42:57.026Z,0.00
2023-03-18T00:43:57.014Z,0.00
2023-03-18T00:44:57.695Z,0.00
2023-03-18T00:45:56.993Z,0.00
2023-03-18T00:46:57.075Z,0.00
2023-03-18T00:47:56.977Z,0.00
2023-03-18T00:48:56.977Z,0.00
2023-03-18T00:49:56.947Z,0.00
2023-03-18T00:50:56.964Z,0.00
2023-03-18T00:51:56.947Z,0.00
2023-03-18T00:52:56.916Z,0.00
2023-03-18T00:53:56.899Z,0.00
2023-03-18T00:54:56.893Z,0.00
2023-03-18T00:55:56.881Z,0.00
2023-03-18T00:56:56.869Z,0.00
2023-03-18T00:57:56.856Z,0.00
2023-03-18T00:58:56.848Z,0.00
2023-03-18T00:59:56.837Z,0.00
2023-03-18T01:00:56.872Z,0.00
2023-03-18T01:01:56.853Z,0.00
2023-03-18T01:02:56.816Z,0.00
2023-03-18T01:03:56.790Z,0.00
2023-03-18T01:04:56.779Z,0.00
2023-03-18T01:05:56.770Z,0.00
2023-03-18T01:06:56.758Z,0.00
2023-03-18T01:07:56.788Z,0.00
2023-03-18T01:08:56.752Z,0.00
2023-03-18T01:09:56.732Z,0.00
2023-03-18T01:10:56.781Z,0.00
2023-03-18T01:11:56.731Z,0.00
2023-03-18T01:12:56.694Z,0.00
2023-03-18T01:13:56.779Z,0.00
2023-03-18T01:14:56.670Z,0.00
2023-03-18T01:15:56.769Z,0.00
2023-03-18T01:16:56.657Z,0.00
2023-03-18T01:17:56.641Z,0.00
2023-03-18T01:18:56.629Z,0.00
2023-03-18T01:19:56.615Z,0.00
2023-03-18T01:20:56.604Z,0.00
2023-03-18T01:21:56.591Z,0.00
2023-03-18T01:22:56.581Z,0.00
2023-03-18T01:23:56.611Z,0.00
2023-03-18T01:24:56.567Z,0.00
2023-03-18T01:25:56.546Z,0.00
2023-03-18T01:26:56.536Z,0.00
2023-03-18T01:27:56.531Z,0.00
2023-03-18T01:28:56.517Z,0.00
2023-03-18T01:29:56.502Z,0.00
2023-03-18T01:30:56.492Z,0.00
2023-03-18T01:31:56.499Z,0.00
2023-03-18T01:32:56.513Z,0.00
2023-03-18T01:33:56.462Z,0.00
2023-03-18T01:34:56.447Z,0.00
2023-03-18T01:35:56.573Z,0.00
2023-03-18T01:36:56.431Z,0.00
2023-03-18T01:37:56.423Z,0.00
2023-03-18T01:38:56.402Z,0.00
2023-03-18T01:39:56.412Z,0.00
2023-03-18T01:40:56.380Z,0.00
2023-03-18T01:41:56.367Z,0.00
2023-03-18T01:42:56.362Z,0.00
2023-03-18T01:43:56.404Z,0.00
2023-03-18T01:44:56.388Z,0.00
2023-03-18T01:45:56.539Z,0.00
2023-03-18T01:46:56.444Z,0.00
2023-03-18T01:47:56.440Z,0.00
2023-03-18T01:48:56.420Z,0.00
2023-03-18T01:49:56.280Z,0.00
2023-03-18T01:50:56.267Z,0.00
2023-03-18T01:51:56.253Z,0.00
2023-03-18T01:52:56.242Z,0.00
2023-03-18T01:53:56.230Z,0.00
2023-03-18T01:54:56.223Z,0.00
2023-03-18T01:55:56.233Z,0.00
2023-03-18T01:56:56.200Z,0.00
2023-03-18T01:57:56.189Z,0.00
2023-03-18T01:58:56.179Z,0.00
2023-03-18T01:59:56.161Z,0.00
2023-03-18T02:00:56.186Z,0.00
2023-03-18T02:01:56.142Z,0.00
2023-03-18T02:02:56.133Z,0.00
2023-03-18T02:03:56.117Z,0.00
2023-03-18T02:04:56.109Z,0.00
2023-03-18T02:05:56.098Z,0.00
2023-03-18T02:06:56.089Z,0.00
2023-03-18T02:07:56.079Z,0.00
2023-03-18T02:08:56.066Z,0.00
2023-03-18T02:09:56.054Z,0.00
2023-03-18T02:10:56.051Z,0.00
2023-03-18T02:11:56.055Z,0.00
2023-03-18T02:12:56.023Z,0.00
2023-03-18T02:13:56.019Z,0.00
2023-03-18T02:14:56.011Z,0.00
2023-03-18T02:15:55.988Z,0.00
2023-03-18T02:16:56.011Z,0.00
2023-03-18T02:17:55.965Z,0.00
2023-03-18T02:18:55.967Z,0.00
2023-03-18T02:19:55.945Z,0.00
2023-03-18T02:20:55.943Z,0.00
2023-03-18T02:21:55.922Z,0.00
2023-03-18T02:22:55.912Z,0.00
2023-03-18T02:23:55.900Z,0.00
2023-03-18T02:24:55.896Z,0.00
2023-03-18T02:25:55.876Z,0.00
2023-03-18T02:26:55.868Z,0.00
2023-03-18T02:27:55.878Z,0.00
2023-03-18T02:28:55.845Z,0.00
2023-03-18T02:29:55.834Z,0.00
2023-03-18T02:30:55.910Z,0.00
2023-03-18T02:31:55.815Z,0.00
2023-03-18T02:32:55.840Z,0.00
2023-03-18T02:33:55.788Z,0.00
2023-03-18T02:34:55.780Z,0.00
2023-03-18T02:35:55.820Z,0.00
2023-03-18T02:36:55.757Z,0.00
2023-03-18T02:37:55.745Z,0.00
2023-03-18T02:38:55.735Z,0.00
2023-03-18T02:39:55.720Z,0.00
2023-03-18T02:40:55.715Z,0.00
2023-03-18T02:41:55.701Z,0.00
2023-03-18T02:42:55.690Z,0.00
2023-03-18T02:43:55.809Z,0.00
2023-03-18T02:44:55.671Z,0.00
2023-03-18T02:45:55.690Z,0.00
2023-03-18T02:46:55.654Z,0.00
2023-03-18T02:47:55.634Z,0.00
2023-03-18T02:48:55.625Z,0.00
2023-03-18T02:49:55.611Z,0.00
2023-03-18T02:50:55.602Z,0.00
2023-03-18T02:51:55.591Z,0.00
2023-03-18T02:52:55.583Z,0.00
2023-03-18T02:53:55.569Z,0.00
2023-03-18T02:54:55.561Z,0.00
2023-03-18T02:55:55.550Z,0.00
2023-03-18T02:56:55.539Z,0.00
2023-03-18T02:57:55.545Z,0.00
2023-03-18T02:58:55.517Z,0.00
2023-03-18T02:59:55.528Z,0.00
2023-03-18T03:00:55.494Z,0.00
2023-03-18T03:01:55.484Z,0.00
2023-03-18T03:02:55.714Z,0.00
2023-03-18T03:03:55.465Z,0.00
2023-03-18T03:04:55.453Z,0.00
2023-03-18T03:05:55.438Z,0.00
2023-03-18T03:06:55.440Z,0.00
2023-03-18T03:07:55.416Z,0.00
2023-03-18T03:08:55.411Z,0.00
2023-03-18T03:09:55.394Z,0.00
2023-03-18T03:10:55.386Z,0.00
2023-03-18T03:11:55.373Z,0.00
2023-03-18T03:12:55.362Z,0.00
2023-03-18T03:13:55.355Z,0.00
2023-03-18T03:14:55.341Z,0.00
2023-03-18T03:15:55.391Z,0.00
2023-03-18T03:16:55.325Z,0.00
2023-03-18T03:17:55.323Z,0.00
2023-03-18T03:18:55.298Z,0.00
2023-03-18T03:19:55.287Z,0.00
2023-03-18T03:20:55.277Z,0.00
2023-03-18T03:21:55.262Z,0.00
2023-03-18T03:22:55.251Z,0.00
2023-03-18T03:23:55.253Z,0.00
2023-03-18T03:24:55.230Z,0.00
2023-03-18T03:25:55.244Z,0.00
2023-03-18T03:26:55.225Z,0.00
2023-03-18T03:27:55.196Z,0.00
2023-03-18T03:28:55.187Z,0.00
2023-03-18T03:29:55.174Z,0.00
2023-03-18T03:30:55.195Z,0.00
2023-03-18T03:31:55.180Z,0.00
2023-03-18T03:32:55.194Z,0.00
2023-03-18T03:33:55.129Z,0.00
2023-03-18T03:34:55.121Z,0.00
2023-03-18T03:35:55.198Z,0.00
2023-03-18T03:36:55.108Z,0.00
2023-03-18T03:37:55.085Z,0.00
2023-03-18T03:38:55.086Z,0.00
2023-03-18T03:39:55.096Z,0.00
2023-03-18T03:40:55.096Z,0.00
2023-03-18T03:41:55.045Z,0.00
2023-03-18T03:42:55.033Z,0.00
2023-03-18T03:43:55.027Z,0.00
2023-03-18T03:44:55.012Z,0.00
2023-03-18T03:45:54.997Z,0.00
2023-03-18T03:46:54.995Z,0.00
2023-03-18T03:47:55.007Z,0.00
2023-03-18T03:48:54.968Z,0.00
2023-03-18T03:49:54.965Z,0.00
2023-03-18T03:50:54.944Z,0.00
2023-03-18T03:51:54.942Z,0.00
2023-03-18T03:52:54.931Z,0.00
2023-03-18T03:53:54.908Z,0.00
2023-03-18T03:54:54.921Z,0.00
2023-03-18T03:55:56.386Z,0.00
2023-03-18T03:56:54.882Z,0.00
2023-03-18T03:57:54.862Z,0.00
2023-03-18T03:58:54.853Z,0.00
2023-03-18T03:59:54.842Z,0.00
2023-03-18T04:00:54.831Z,0.00
2023-03-18T04:01:54.818Z,0.00
2023-03-18T04:02:54.955Z,0.00
2023-03-18T04:03:54.863Z,0.00
2023-03-18T04:04:54.790Z,0.00
2023-03-18T04:05:54.827Z,0.00
2023-03-18T04:06:54.777Z,0.00
2023-03-18T04:07:54.753Z,0.00
2023-03-18T04:08:54.740Z,0.00
2023-03-18T04:09:54.736Z,0.00
2023-03-18T04:10:54.718Z,0.00
2023-03-18T04:11:54.731Z,0.00
2023-03-18T04:12:54.695Z,0.00
2023-03-18T04:13:54.701Z,0.00
2023-03-18T04:14:54.678Z,0.00
2023-03-18T04:15:54.735Z,0.00
2023-03-18T04:16:54.651Z,0.00
2023-03-18T04:17:54.658Z,0.00
2023-03-18T04:18:54.654Z,0.00
2023-03-18T04:19:54.657Z,0.00
2023-03-18T04:20:54.609Z,0.00
2023-03-18T04:21:54.597Z,0.00
2023-03-18T04:22:54.586Z,0.00
2023-03-18T04:23:54.577Z,0.00
2023-03-18T04:24:54.563Z,0.00
2023-03-18T04:25:54.556Z,0.00
2023-03-18T04:26:54.544Z,0.00
2023-03-18T04:27:54.537Z,0.00
2023-03-18T04:28:54.515Z,0.00
2023-03-18T04:29:54.509Z,0.00
2023-03-18T04:30:54.506Z,0.00
2023-03-18T04:31:54.600Z,0.00
2023-03-18T04:32:54.535Z,0.00
2023-03-18T04:33:54.476Z,0.00
2023-03-18T04:34:54.456Z,0.00
2023-03-18T04:35:54.492Z,0.00
2023-03-18T04:36:54.427Z,0.00
2023-03-18T04:37:54.421Z,0.00
2023-03-18T04:38:54.407Z,0.00
2023-03-18T04:39:54.395Z,0.00
2023-03-18T04:40:54.391Z,0.00
2023-03-18T04:41:54.372Z,0.00
2023-03-18T04:42:54.366Z,0.00
2023-03-18T04:43:54.352Z,0.00
2023-03-18T04:44:54.340Z,0.00
2023-03-18T04:45:54.329Z,0.00
2023-03-18T04:46:54.373Z,0.00
2023-03-18T04:47:54.331Z,0.00
2023-03-18T04:48:54.295Z,0.00
2023-03-18T04:49:54.310Z,0.00
2023-03-18T04:50:54.271Z,0.00
2023-03-18T04:51:54.288Z,0.00
2023-03-18T04:52:54.256Z,0.00
2023-03-18T04:53:54.240Z,0.00
2023-03-18T04:54:54.236Z,0.00
2023-03-18T04:55:54.221Z,0.00
2023-03-18T04:56:54.211Z,0.00
2023-03-18T04:57:54.198Z,0.00
2023-03-18T04:58:54.185Z,0.00
2023-03-18T04:59:54.173Z,0.00
2023-03-18T05:00:54.202Z,0.00
2023-03-18T05:01:54.161Z,0.00
2023-03-18T05:02:54.152Z,0.00
2023-03-18T05:03:54.146Z,0.00
2023-03-18T05:04:54.118Z,4.00
2023-03-18T05:05:54.109Z,4.00
2023-03-18T05:06:54.100Z,4.00
2023-03-18T05:07:54.112Z,4.00
2023-03-18T05:08:54.084Z,8.00
2023-03-18T05:09:54.072Z,8.00
2023-03-18T05:10:54.068Z,8.00
2023-03-18T05:11:54.042Z,8.00
2023-03-18T05:12:54.029Z,12.00
2023-03-18T05:13:54.029Z,12.00
2023-03-18T05:14:54.010Z,20.00
2023-03-18T05:15:53.998Z,20.00
2023-03-18T05:16:53.992Z,28.00
2023-03-18T05:17:53.976Z,32.00
2023-03-18T05:18:53.963Z,36.00
2023-03-18T05:19:53.970Z,44.00
2023-03-18T05:20:53.942Z,52.00
2023-03-18T05:21:53.951Z,60.00
2023-03-18T05:22:53.927Z,68.00
2023-03-18T05:23:53.937Z,84.00
2023-03-18T05:24:53.898Z,92.00
2023-03-18T05:25:53.893Z,100.00
2023-03-18T05:26:53.904Z,112.00
2023-03-18T05:27:53.867Z,124.00
2023-03-18T05:28:53.891Z,144.00
2023-03-18T05:29:53.843Z,160.00
2023-03-18T05:30:53.830Z,180.00
2023-03-18T05:31:53.878Z,204.00
2023-03-18T05:32:53.920Z,228.00
2023-03-18T05:33:53.812Z,248.00
2023-03-18T05:34:53.788Z,272.00
2023-03-18T05:35:53.797Z,296.00
2023-03-18T05:36:53.772Z,316.00
2023-03-18T05:37:53.766Z,340.00
2023-03-18T05:38:53.744Z,360.00
2023-03-18T05:39:53.755Z,384.00
2023-03-18T05:40:53.729Z,408.00
2023-03-18T05:41:53.709Z,432.00
2023-03-18T05:42:56.622Z,460.00
2023-03-18T05:43:53.687Z,484.00
2023-03-18T05:44:53.673Z,512.00
2023-03-18T05:45:53.732Z,548.00
2023-03-18T05:46:53.650Z,580.00
2023-03-18T05:47:53.739Z,616.00
2023-03-18T05:48:53.631Z,644.00
2023-03-18T05:49:53.620Z,672.00
2023-03-18T05:50:53.606Z,688.00
2023-03-18T05:51:54.929Z,684.00
2023-03-18T05:52:53.582Z,660.00
2023-03-18T05:53:53.578Z,636.00
2023-03-18T05:54:53.572Z,640.00
2023-03-18T05:55:53.595Z,656.00
2023-03-18T05:56:53.551Z,660.00
2023-03-18T05:57:53.529Z,652.00
2023-03-18T05:58:53.517Z,644.00
2023-03-18T05:59:53.517Z,636.00
2023-03-18T06:00:53.500Z,636.00
2023-03-18T06:01:53.568Z,652.00
2023-03-18T06:02:53.479Z,696.00
2023-03-18T06:03:53.503Z,772.00
2023-03-18T06:04:53.456Z,856.00
2023-03-18T06:05:53.444Z,960.00
2023-03-18T06:06:53.431Z,1084.00
2023-03-18T06:07:53.424Z,1204.00
2023-03-18T06:08:53.422Z,1300.00
2023-03-18T06:09:53.412Z,1368.00
2023-03-18T06:10:53.391Z,1408.00
2023-03-18T06:11:53.525Z,1416.00
2023-03-18T06:12:53.373Z,1368.00
2023-03-18T06:13:53.378Z,1280.00
2023-03-18T06:14:53.350Z,1192.00
2023-03-18T06:15:53.336Z,1104.00
2023-03-18T06:16:53.545Z,1004.00
2023-03-18T06:17:53.327Z,928.00
2023-03-18T06:18:53.302Z,888.00
2023-03-18T06:19:53.304Z,876.00
2023-03-18T06:20:53.277Z,868.00
2023-03-18T06:21:53.269Z,840.00
2023-03-18T06:22:53.260Z,804.00
2023-03-18T06:23:53.247Z,780.00
2023-03-18T06:24:53.243Z,760.00
2023-03-18T06:25:53.239Z,748.00
2023-03-18T06:26:53.214Z,752.00
2023-03-18T06:27:53.264Z,740.00
2023-03-18T06:28:53.192Z,716.00
2023-03-18T06:29:53.187Z,700.00
2023-03-18T06:30:53.189Z,712.00
2023-03-18T06:31:53.165Z,744.00
2023-03-18T06:32:53.189Z,792.00
2023-03-18T06:33:53.148Z,836.00
2023-03-18T06:34:53.130Z,844.00
2023-03-18T06:35:53.153Z,824.00
2023-03-18T06:36:53.106Z,804.00
2023-03-18T06:37:53.095Z,796.00
2023-03-18T06:38:53.085Z,812.00
2023-03-18T06:39:53.071Z,840.00
2023-03-18T06:40:53.067Z,888.00
2023-03-18T06:41:53.061Z,960.00
2023-03-18T06:42:53.036Z,1072.00
2023-03-18T06:43:53.051Z,1192.00
2023-03-18T06:44:53.015Z,1352.00
2023-03-18T06:45:53.034Z,1472.00
2023-03-18T06:46:53.005Z,1552.00
2023-03-18T06:47:52.983Z,1720.00
2023-03-18T06:48:52.974Z,1928.00
2023-03-18T06:49:52.972Z,2028.00
2023-03-18T06:50:52.968Z,1960.00
2023-03-18T06:51:52.939Z,1876.00
2023-03-18T06:52:52.941Z,1908.00
2023-03-18T06:53:52.923Z,2072.00
2023-03-18T06:54:52.908Z,2312.00
2023-03-18T06:55:52.891Z,2520.00
2023-03-18T06:56:52.929Z,2676.00
2023-03-18T06:57:52.875Z,2812.00
2023-03-18T06:58:52.861Z,2932.00
2023-03-18T06:59:52.872Z,3068.00
2023-03-18T07:00:52.906Z,3272.00
2023-03-18T07:01:52.870Z,3444.00
2023-03-18T07:02:52.817Z,3524.00
2023-03-18T07:03:52.806Z,3516.00
2023-03-18T07:04:52.806Z,3544.00
2023-03-18T07:05:52.783Z,3856.00
2023-03-18T07:06:52.769Z,4488.00
2023-03-18T07:07:52.770Z,5088.00
2023-03-18T07:08:52.747Z,5248.00
2023-03-18T07:09:52.739Z,4912.00
2023-03-18T07:10:52.725Z,4340.00
2023-03-18T07:11:52.851Z,3960.00
2023-03-18T07:12:52.706Z,3812.00
2023-03-18T07:13:52.716Z,3700.00
2023-03-18T07:14:52.678Z,3704.00
2023-03-18T07:15:52.723Z,4036.00
2023-03-18T07:16:52.661Z,4564.00
2023-03-18T07:17:52.649Z,5008.00
2023-03-18T07:18:52.652Z,5248.00
2023-03-18T07:19:52.629Z,5452.00
2023-03-18T07:20:52.653Z,5788.00
2023-03-18T07:21:52.604Z,6184.00
2023-03-18T07:22:52.634Z,6412.00
2023-03-18T07:23:52.586Z,6364.00
2023-03-18T07:24:52.629Z,6132.00
2023-03-18T07:25:52.565Z,5884.00
2023-03-18T07:26:52.564Z,5696.00
2023-03-18T07:27:52.543Z,5524.00
2023-03-18T07:28:52.530Z,5292.00
2023-03-18T07:29:52.520Z,4928.00
2023-03-18T07:30:54.253Z,4516.00
2023-03-18T07:31:52.519Z,4184.00
2023-03-18T07:32:52.518Z,3940.00
2023-03-18T07:33:52.477Z,3724.00
2023-03-18T07:34:52.466Z,3664.00
2023-03-18T07:35:52.519Z,3804.00
2023-03-18T07:36:52.450Z,4068.00
2023-03-18T07:37:52.443Z,4408.00
2023-03-18T07:38:52.420Z,4752.00
2023-03-18T07:39:52.418Z,5036.00
2023-03-18T07:40:52.401Z,5196.00
2023-03-18T07:41:52.409Z,5224.00
2023-03-18T07:42:52.382Z,5224.00
2023-03-18T07:43:52.371Z,5336.00
2023-03-18T07:44:52.359Z,5468.00
2023-03-18T07:45:52.345Z,5596.00
2023-03-18T07:46:52.361Z,5736.00
2023-03-18T07:47:52.402Z,5680.00
2023-03-18T07:48:52.482Z,5288.00
2023-03-18T07:49:52.306Z,4756.00
2023-03-18T07:50:52.293Z,4316.00
2023-03-18T07:51:52.330Z,4132.00
2023-03-18T07:52:52.270Z,4200.00
2023-03-18T07:53:52.312Z,4436.00
2023-03-18T07:54:52.248Z,4728.00
2023-03-18T07:55:52.239Z,5080.00
2023-03-18T07:56:52.314Z,5488.00
2023-03-18T07:57:52.214Z,5892.00
2023-03-18T07:58:52.203Z,6312.00
2023-03-18T07:59:52.194Z,6720.00
2023-03-18T08:00:52.187Z,7152.00
2023-03-18T08:01:52.174Z,7452.00
2023-03-18T08:02:52.170Z,7532.00
2023-03-18T08:03:52.212Z,7348.00
2023-03-18T08:04:52.309Z,6960.00
2023-03-18T08:05:52.139Z,6472.00
2023-03-18T08:06:52.118Z,6104.00
2023-03-18T08:07:52.108Z,5920.00
2023-03-18T08:08:52.102Z,5840.00
2023-03-18T08:09:52.080Z,5988.00
2023-03-18T08:10:52.073Z,6580.00
2023-03-18T08:11:52.067Z,7440.00
2023-03-18T08:12:53.911Z,8168.00
2023-03-18T08:13:52.038Z,8708.00
2023-03-18T08:14:52.025Z,9316.00
2023-03-18T08:15:52.094Z,9864.00
2023-03-18T08:16:52.006Z,10260.00
2023-03-18T08:17:51.992Z,10516.00
2023-03-18T08:18:51.983Z,10704.00
2023-03-18T08:19:51.998Z,10796.00
2023-03-18T08:20:51.959Z,10764.00
2023-03-18T08:21:51.945Z,10388.00
2023-03-18T08:22:51.936Z,9844.00
2023-03-18T08:23:51.924Z,9284.00
2023-03-18T08:24:51.915Z,8812.00
2023-03-18T08:25:52.062Z,8520.00
2023-03-18T08:26:51.901Z,8472.00
2023-03-18T08:27:51.883Z,8636.00
2023-03-18T08:28:51.873Z,8852.00
2023-03-18T08:29:51.861Z,9012.00
2023-03-18T08:30:51.853Z,8916.00
2023-03-18T08:31:51.936Z,8548.00
2023-03-18T08:32:51.859Z,8176.00
2023-03-18T08:33:51.817Z,7944.00
2023-03-18T08:34:51.805Z,7840.00
2023-03-18T08:35:51.866Z,7832.00
2023-03-18T08:36:51.789Z,8004.00
2023-03-18T08:37:51.769Z,8420.00
2023-03-18T08:38:51.761Z,9112.00
2023-03-18T08:39:51.762Z,9832.00
2023-03-18T08:40:51.742Z,10144.00
2023-03-18T08:41:51.752Z,9804.00
2023-03-18T08:42:51.723Z,8924.00
2023-03-18T08:43:51.705Z,7956.00
2023-03-18T08:44:51.697Z,7204.00
2023-03-18T08:45:51.698Z,6728.00
2023-03-18T08:46:51.673Z,6512.00
2023-03-18T08:47:51.663Z,6520.00
2023-03-18T08:48:51.654Z,6676.00
2023-03-18T08:49:51.638Z,6992.00
2023-03-18T08:50:51.637Z,7512.00
2023-03-18T08:51:51.643Z,8264.00
2023-03-18T08:52:51.621Z,9132.00
2023-03-18T08:53:51.608Z,9868.00
2023-03-18T08:54:51.590Z,10500.00
2023-03-18T08:55:51.613Z,11328.00
2023-03-18T08:56:51.633Z,12432.00
2023-03-18T08:57:51.677Z,13604.00
2023-03-18T08:58:51.689Z,14652.00
2023-03-18T08:59:51.681Z,15664.00
2023-03-18T09:00:51.808Z,16960.00
2023-03-18T09:01:51.647Z,18336.00
2023-03-18T09:02:51.538Z,19712.00
2023-03-18T09:03:51.594Z,20832.00
2023-03-18T09:04:51.480Z,21024.00
2023-03-18T09:05:51.470Z,24448.00
2023-03-18T09:06:51.454Z,25984.00
2023-03-18T09:07:51.471Z,21920.00
2023-03-18T09:08:51.438Z,32256.00
2023-03-18T09:09:51.421Z,24704.00
2023-03-18T09:10:51.412Z,21984.00
2023-03-18T09:11:51.442Z,23360.00
2023-03-18T09:12:51.392Z,23584.00
2023-03-18T09:13:51.381Z,25056.00
2023-03-18T09:14:51.400Z,31872.00
2023-03-18T09:15:51.361Z,49312.00
2023-03-18T09:16:51.401Z,52288.00
2023-03-18T09:18:08.099Z,41920.00
2023-03-18T09:18:52.354Z,36224.00
2023-03-18T09:19:51.315Z,29408.00
2023-03-18T09:20:51.302Z,32256.00
2023-03-18T09:21:51.289Z,22400.00
2023-03-18T09:22:51.281Z,27200.00
2023-03-18T09:23:51.296Z,36864.00
2023-03-18T09:24:51.266Z,41664.00
2023-03-18T09:25:51.244Z,42912.00
2023-03-18T09:26:51.235Z,43136.00
2023-03-18T09:27:51.225Z,45120.00
2023-03-18T09:28:51.218Z,46592.00
2023-03-18T09:29:51.204Z,47680.00
2023-03-18T09:30:51.313Z,51424.00
2023-03-18T09:31:51.187Z,52480.00
2023-03-18T09:32:51.281Z,23392.00
2023-03-18T09:33:51.172Z,23040.00
2023-03-18T09:34:51.147Z,32960.00
2023-03-18T09:35:51.193Z,50208.00
2023-03-18T09:36:51.250Z,54720.00
2023-03-18T09:37:51.115Z,53504.00
2023-03-18T09:38:51.103Z,51552.00
2023-03-18T09:39:51.122Z,50688.00
2023-03-18T09:40:51.083Z,52480.00
2023-03-18T09:41:51.073Z,52320.00
2023-03-18T09:42:51.073Z,51936.00
2023-03-18T09:43:51.065Z,48992.00
2023-03-18T09:44:51.267Z,34816.00
2023-03-18T09:45:51.149Z,23424.00
2023-03-18T09:46:51.169Z,21024.00
2023-03-18T09:47:51.014Z,21600.00
2023-03-18T09:48:50.996Z,21248.00
2023-03-18T09:49:50.985Z,21568.00
2023-03-18T09:50:50.981Z,26400.00
2023-03-18T09:51:50.964Z,25184.00
2023-03-18T09:52:50.968Z,34368.00
2023-03-18T09:53:50.939Z,34912.00
2023-03-18T09:54:50.930Z,22816.00
2023-03-18T09:55:50.941Z,27904.00
2023-03-18T09:56:50.907Z,23232.00
2023-03-18T09:57:50.899Z,19552.00
2023-03-18T09:58:50.892Z,15816.00
2023-03-18T09:59:50.875Z,16352.00
2023-03-18T10:00:50.893Z,14376.00
2023-03-18T10:01:50.851Z,12372.00
2023-03-18T10:02:50.866Z,12752.00
2023-03-18T10:03:50.866Z,20000.00
2023-03-18T10:04:50.824Z,19232.00
2023-03-18T10:05:50.820Z,17888.00
2023-03-18T10:06:50.801Z,17084.00
2023-03-18T10:07:50.789Z,15536.00
2023-03-18T10:08:50.789Z,15220.00
2023-03-18T10:09:50.775Z,18048.00
2023-03-18T10:10:50.756Z,20896.00
2023-03-18T10:11:50.772Z,23104.00
2023-03-18T10:12:50.747Z,23488.00
2023-03-18T10:13:50.724Z,23328.00
2023-03-18T10:14:50.717Z,22912.00
2023-03-18T10:15:50.740Z,22048.00
2023-03-18T10:16:50.707Z,21088.00
2023-03-18T10:17:50.680Z,20448.00
2023-03-18T10:18:50.672Z,19328.00
2023-03-18T10:19:50.658Z,19264.00
2023-03-18T10:20:50.651Z,21184.00
2023-03-18T10:21:50.634Z,21664.00
2023-03-18T10:22:50.622Z,21504.00
2023-03-18T10:23:50.611Z,21024.00
2023-03-18T10:24:50.603Z,22880.00
2023-03-18T10:25:50.592Z,24000.00
2023-03-18T10:26:50.587Z,26208.00
2023-03-18T10:27:50.590Z,24128.00
2023-03-18T10:28:50.560Z,22688.00
2023-03-18T10:29:50.549Z,22144.00
2023-03-18T10:30:50.612Z,22688.00
2023-03-18T10:31:50.528Z,22560.00
2023-03-18T10:32:50.684Z,22464.00
2023-03-18T10:33:50.502Z,22112.00
2023-03-18T10:34:50.504Z,21664.00
2023-03-18T10:35:50.503Z,21664.00
2023-03-18T10:36:50.475Z,22016.00
2023-03-18T10:37:50.459Z,22560.00
2023-03-18T10:38:50.452Z,23136.00
2023-03-18T10:39:50.440Z,23616.00
2023-03-18T10:40:50.427Z,23872.00
2023-03-18T10:41:50.443Z,24096.00
2023-03-18T10:42:50.426Z,24288.00
2023-03-18T10:43:50.440Z,24704.00
2023-03-18T10:44:50.385Z,25024.00
2023-03-18T10:45:50.397Z,26528.00
2023-03-18T10:46:50.538Z,24928.00
2023-03-18T10:47:50.396Z,25344.00
2023-03-18T10:48:50.372Z,25216.00
2023-03-18T10:49:50.355Z,25120.00
2023-03-18T10:50:50.350Z,24864.00
2023-03-18T10:51:50.328Z,24704.00
2023-03-18T10:52:50.315Z,24608.00
2023-03-18T10:53:50.290Z,24256.00
2023-03-18T10:54:50.275Z,23968.00
2023-03-18T10:55:50.269Z,23328.00
2023-03-18T10:56:50.258Z,22400.00
2023-03-18T10:57:50.270Z,21600.00
2023-03-18T10:58:50.236Z,21152.00
2023-03-18T10:59:50.244Z,20864.00
2023-03-18T11:00:50.213Z,20864.00
2023-03-18T11:01:50.231Z,21056.00
2023-03-18T11:02:50.230Z,21472.00
2023-03-18T11:03:50.176Z,21696.00
2023-03-18T11:04:50.171Z,21728.00
2023-03-18T11:05:50.471Z,21600.00
2023-03-18T11:06:50.154Z,21376.00
2023-03-18T11:07:50.386Z,21920.00
2023-03-18T11:08:50.143Z,21760.00
2023-03-18T11:09:50.118Z,21184.00
2023-03-18T11:10:50.101Z,19968.00
2023-03-18T11:11:50.087Z,18944.00
2023-03-18T11:12:50.084Z,18144.00
2023-03-18T11:13:50.070Z,17600.00
2023-03-18T11:14:50.067Z,17088.00
2023-03-18T11:15:50.142Z,16800.00
2023-03-18T11:16:50.052Z,17120.00
2023-03-18T11:17:50.027Z,17664.00
2023-03-18T11:18:50.018Z,18176.00
2023-03-18T11:19:50.013Z,18592.00
2023-03-18T11:20:50.009Z,18816.00
2023-03-18T11:21:49.985Z,18944.00
2023-03-18T11:22:49.977Z,19392.00
2023-03-18T11:23:51.031Z,20032.00
2023-03-18T11:24:49.953Z,21120.00
2023-03-18T11:25:49.938Z,22112.00
2023-03-18T11:26:49.934Z,23072.00
2023-03-18T11:27:49.915Z,23968.00
2023-03-18T11:28:49.905Z,25152.00
2023-03-18T11:29:49.899Z,27264.00
2023-03-18T11:30:49.890Z,26784.00
2023-03-18T11:31:49.901Z,25984.00
2023-03-18T11:32:49.931Z,26208.00
2023-03-18T11:33:49.849Z,26336.00
2023-03-18T11:34:49.853Z,26496.00
2023-03-18T11:35:49.933Z,25984.00
2023-03-18T11:36:49.820Z,25696.00
2023-03-18T11:37:49.805Z,25568.00
2023-03-18T11:38:49.800Z,25568.00
2023-03-18T11:39:54.638Z,25664.00
2023-03-18T11:40:50.806Z,25536.00
2023-03-18T11:41:49.771Z,25056.00
2023-03-18T11:42:49.764Z,24608.00
2023-03-18T11:43:49.735Z,24128.00
2023-03-18T11:44:49.726Z,23840.00
2023-03-18T11:45:49.728Z,23936.00
2023-03-18T11:46:49.821Z,24192.00
2023-03-18T11:47:49.713Z,24384.00
2023-03-18T11:48:49.689Z,24512.00
2023-03-18T11:49:49.675Z,24160.00
2023-03-18T11:50:49.659Z,23552.00
2023-03-18T11:51:49.657Z,22880.00
2023-03-18T11:52:49.646Z,22368.00
2023-03-18T11:53:49.638Z,22272.00
2023-03-18T11:54:49.768Z,22560.00
2023-03-18T11:55:49.607Z,23200.00
2023-03-18T11:56:49.598Z,23680.00
2023-03-18T11:57:49.585Z,24384.00
2023-03-18T11:58:49.574Z,25184.00
2023-03-18T11:59:49.563Z,25920.00
2023-03-18T12:00:49.557Z,26560.00
2023-03-18T12:01:49.568Z,26656.00
2023-03-18T12:02:49.559Z,26528.00
2023-03-18T12:03:49.542Z,26080.00
2023-03-18T12:04:49.550Z,25088.00
2023-03-18T12:05:49.506Z,24288.00
2023-03-18T12:06:49.493Z,23872.00
2023-03-18T12:07:49.479Z,24064.00
2023-03-18T12:08:49.475Z,24832.00
2023-03-18T12:09:49.463Z,28320.00
2023-03-18T12:10:49.455Z,30240.00
2023-03-18T12:11:49.438Z,31744.00
2023-03-18T12:12:49.434Z,32768.00
2023-03-18T12:13:49.425Z,33984.00
2023-03-18T12:14:49.409Z,31712.00
2023-03-18T12:15:49.497Z,31232.00
2023-03-18T12:16:49.422Z,28576.00
2023-03-18T12:17:49.395Z,23552.00
2023-03-18T12:18:49.366Z,20704.00
2023-03-18T12:19:49.379Z,21536.00
2023-03-18T12:20:49.440Z,23200.00
2023-03-18T12:21:49.334Z,23040.00
2023-03-18T12:22:49.320Z,23520.00
2023-03-18T12:23:50.273Z,23936.00
2023-03-18T12:24:49.296Z,24736.00
2023-03-18T12:25:49.295Z,25184.00
2023-03-18T12:26:49.274Z,24192.00
2023-03-18T12:27:49.270Z,22144.00
2023-03-18T12:28:49.254Z,18400.00
2023-03-18T12:29:49.260Z,18528.00
2023-03-18T12:30:49.229Z,25472.00